aviador You're here:

LERI Decoded Metar

Alcantarilla in SPAIN
Report Time2018-07-17 11:00:00
UTC Time2018-07-17 11:50:20
Flight Rules vfr VFR
Wind080° at 06 kt
W.Decomp.*RWY 07: 5.9 kt HW 1.1 kt RCW
W.Rank080° ranks 2
Current wind is below 080° avg. (7.8)
Visibility9999 m
Phenomena:N/A
Clouds:N/A
Expected CloudBase > 8,400 ft AGL from Temp-Dew spread
CeilingNone
Temp33°C (ISA +18)
Dew Point12°C (28% RH)
Heat Index31.7°C
AAT31.5°C
QNH1017 hPa
Density Alt2,408 ft
Elevation246 ft
Report Wrong Elevation
Raw Report
METAR LERI 171100Z 08006KT 010V160 CAVOK 33/12 Q1017 NOSIG=

Extra information for LERI:More info

Metar Taf Metar & Taf Last 4 Metars F.Rules Stats Wind Profile Meteogram Temp Stats Airport Information Weather charts Add Link Nearby VenuesMetar ALERT Operation Metar Decoded Social comments

TOTANA, (Aeroclub Totana)